sensor_id;sensor_type;location;lat;lon;timestamp;temperature;humidity
31819;DHT22;18384;48.860;9.188;2024-03-02T00:01:12;8.70;99.70
31819;DHT22;18384;48.860;9.188;2024-03-02T00:03:38;8.70;99.70
31819;DHT22;18384;48.860;9.188;2024-03-02T00:06:04;8.60;99.60
31819;DHT22;18384;48.860;9.188;2024-03-02T00:08:30;8.60;99.70
31819;DHT22;18384;48.860;9.188;2024-03-02T00:11:00;8.60;99.60
31819;DHT22;18384;48.860;9.188;2024-03-02T00:13:30;8.60;99.60
31819;DHT22;18384;48.860;9.188;2024-03-02T00:15:57;8.60;99.60
31819;DHT22;18384;48.860;9.188;2024-03-02T00:18:33;8.60;99.50
31819;DHT22;18384;48.860;9.188;2024-03-02T00:21:01;8.60;99.50
31819;DHT22;18384;48.860;9.188;2024-03-02T00:23:30;8.60;99.40
31819;DHT22;18384;48.860;9.188;2024-03-02T00:25:57;8.60;99.40
31819;DHT22;18384;48.860;9.188;2024-03-02T00:28:31;8.50;99.50
31819;DHT22;18384;48.860;9.188;2024-03-02T00:31:09;8.50;99.50
31819;DHT22;18384;48.860;9.188;2024-03-02T00:33:47;8.50;99.50
31819;DHT22;18384;48.860;9.188;2024-03-02T00:36:24;8.50;99.50
31819;DHT22;18384;48.860;9.188;2024-03-02T00:38:53;8.50;99.50
31819;DHT22;18384;48.860;9.188;2024-03-02T00:41:38;8.50;99.50
31819;DHT22;18384;48.860;9.188;2024-03-02T00:44:10;8.50;99.50
31819;DHT22;18384;48.860;9.188;2024-03-02T00:46:39;8.50;99.40
31819;DHT22;18384;48.860;9.188;2024-03-02T00:49:21;8.40;99.30
31819;DHT22;18384;48.860;9.188;2024-03-02T00:51:51;8.40;99.30
31819;DHT22;18384;48.860;9.188;2024-03-02T00:54:23;8.40;99.30
31819;DHT22;18384;48.860;9.188;2024-03-02T00:56:54;8.40;99.30
31819;DHT22;18384;48.860;9.188;2024-03-02T00:59:22;8.40;99.20
31819;DHT22;18384;48.860;9.188;2024-03-02T01:01:49;8.40;99.20
31819;DHT22;18384;48.860;9.188;2024-03-02T01:04:15;8.40;99.20
31819;DHT22;18384;48.860;9.188;2024-03-02T01:06:44;8.40;99.20
31819;DHT22;18384;48.860;9.188;2024-03-02T01:09:11;8.40;99.10
31819;DHT22;18384;48.860;9.188;2024-03-02T01:11:43;8.40;99.20
31819;DHT22;18384;48.860;9.188;2024-03-02T01:14:09;8.40;99.30
31819;DHT22;18384;48.860;9.188;2024-03-02T01:16:36;8.40;99.10
31819;DHT22;18384;48.860;9.188;2024-03-02T01:19:02;8.40;99.20
31819;DHT22;18384;48.860;9.188;2024-03-02T01:21:28;8.40;99.20
31819;DHT22;18384;48.860;9.188;2024-03-02T01:23:54;8.40;99.10
31819;DHT22;18384;48.860;9.188;2024-03-02T01:26:20;8.30;99.00
31819;DHT22;18384;48.860;9.188;2024-03-02T01:28:46;8.30;99.00
31819;DHT22;18384;48.860;9.188;2024-03-02T01:31:12;8.30;99.00
31819;DHT22;18384;48.860;9.188;2024-03-02T01:33:38;8.30;99.10
31819;DHT22;18384;48.860;9.188;2024-03-02T01:36:04;8.30;99.30
31819;DHT22;18384;48.860;9.188;2024-03-02T01:38:31;8.20;99.00
31819;DHT22;18384;48.860;9.188;2024-03-02T01:40:57;8.20;99.00
31819;DHT22;18384;48.860;9.188;2024-03-02T01:43:24;8.20;98.90
31819;DHT22;18384;48.860;9.188;2024-03-02T01:45:51;8.10;99.00
31819;DHT22;18384;48.860;9.188;2024-03-02T01:48:18;8.10;99.10
31819;DHT22;18384;48.860;9.188;2024-03-02T01:50:44;8.10;99.00
31819;DHT22;18384;48.860;9.188;2024-03-02T01:53:11;8.10;99.00
31819;DHT22;18384;48.860;9.188;2024-03-02T01:55:37;8.00;99.00
31819;DHT22;18384;48.860;9.188;2024-03-02T01:58:03;8.00;99.00
31819;DHT22;18384;48.860;9.188;2024-03-02T02:00:29;8.00;98.90
31819;DHT22;18384;48.860;9.188;2024-03-02T02:02:55;8.00;99.00
31819;DHT22;18384;48.860;9.188;2024-03-02T02:05:23;7.90;99.00
31819;DHT22;18384;48.860;9.188;2024-03-02T02:07:49;7.90;99.00
31819;DHT22;18384;48.860;9.188;2024-03-02T02:10:15;7.90;99.00
31819;DHT22;18384;48.860;9.188;2024-03-02T02:12:41;7.90;98.90
31819;DHT22;18384;48.860;9.188;2024-03-02T02:15:27;7.80;99.00
31819;DHT22;18384;48.860;9.188;2024-03-02T02:17:55;7.80;99.00
31819;DHT22;18384;48.860;9.188;2024-03-02T02:20:22;7.80;99.00
31819;DHT22;18384;48.860;9.188;2024-03-02T02:23:23;7.80;99.00
31819;DHT22;18384;48.860;9.188;2024-03-02T02:25:49;7.80;99.10
31819;DHT22;18384;48.860;9.188;2024-03-02T02:28:15;7.80;99.00
31819;DHT22;18384;48.860;9.188;2024-03-02T02:30:41;7.80;99.00
31819;DHT22;18384;48.860;9.188;2024-03-02T02:33:08;7.80;99.00
31819;DHT22;18384;48.860;9.188;2024-03-02T02:35:34;7.80;99.00
31819;DHT22;18384;48.860;9.188;2024-03-02T02:38:01;7.70;98.90
31819;DHT22;18384;48.860;9.188;2024-03-02T02:40:27;7.80;98.90
31819;DHT22;18384;48.860;9.188;2024-03-02T02:42:57;7.70;98.90
31819;DHT22;18384;48.860;9.188;2024-03-02T02:45:24;7.70;98.90
31819;DHT22;18384;48.860;9.188;2024-03-02T02:47:50;7.60;98.90
31819;DHT22;18384;48.860;9.188;2024-03-02T02:50:17;7.60;98.90
31819;DHT22;18384;48.860;9.188;2024-03-02T02:52:43;7.60;98.80
31819;DHT22;18384;48.860;9.188;2024-03-02T02:55:10;7.60;98.80
31819;DHT22;18384;48.860;9.188;2024-03-02T02:57:39;7.60;98.80
31819;DHT22;18384;48.860;9.188;2024-03-02T03:00:14;7.60;98.80
31819;DHT22;18384;48.860;9.188;2024-03-02T03:02:42;7.50;98.70
31819;DHT22;18384;48.860;9.188;2024-03-02T03:05:10;7.50;98.70
31819;DHT22;18384;48.860;9.188;2024-03-02T03:07:41;7.40;98.60
31819;DHT22;18384;48.860;9.188;2024-03-02T03:10:08;7.40;98.50
31819;DHT22;18384;48.860;9.188;2024-03-02T03:12:34;7.40;98.60
31819;DHT22;18384;48.860;9.188;2024-03-02T03:15:01;7.40;98.60
31819;DHT22;18384;48.860;9.188;2024-03-02T03:17:30;7.40;98.60
31819;DHT22;18384;48.860;9.188;2024-03-02T03:19:56;7.40;98.50
31819;DHT22;18384;48.860;9.188;2024-03-02T03:22:22;7.40;98.50
31819;DHT22;18384;48.860;9.188;2024-03-02T03:24:48;7.30;98.50
31819;DHT22;18384;48.860;9.188;2024-03-02T03:27:14;7.30;98.50
31819;DHT22;18384;48.860;9.188;2024-03-02T03:29:40;7.30;98.50
31819;DHT22;18384;48.860;9.188;2024-03-02T03:32:07;7.20;98.50
31819;DHT22;18384;48.860;9.188;2024-03-02T03:34:33;7.20;98.50
31819;DHT22;18384;48.860;9.188;2024-03-02T03:36:59;7.30;98.60
31819;DHT22;18384;48.860;9.188;2024-03-02T03:39:25;7.20;98.70
31819;DHT22;18384;48.860;9.188;2024-03-02T03:41:51;7.20;98.70
31819;DHT22;18384;48.860;9.188;2024-03-02T03:44:18;7.20;98.70
31819;DHT22;18384;48.860;9.188;2024-03-02T03:46:44;7.10;98.60
31819;DHT22;18384;48.860;9.188;2024-03-02T03:49:10;7.10;98.50
31819;DHT22;18384;48.860;9.188;2024-03-02T03:51:36;7.10;98.50
31819;DHT22;18384;48.860;9.188;2024-03-02T03:54:02;7.10;98.40
31819;DHT22;18384;48.860;9.188;2024-03-02T03:56:28;7.10;98.40
31819;DHT22;18384;48.860;9.188;2024-03-02T03:58:55;7.10;98.40
31819;DHT22;18384;48.860;9.188;2024-03-02T04:01:21;7.10;98.40
31819;DHT22;18384;48.860;9.188;2024-03-02T04:03:48;7.10;98.50
31819;DHT22;18384;48.860;9.188;2024-03-02T04:06:14;7.00;98.40
31819;DHT22;18384;48.860;9.188;2024-03-02T04:08:42;7.10;98.50
31819;DHT22;18384;48.860;9.188;2024-03-02T04:11:08;7.00;98.70
31819;DHT22;18384;48.860;9.188;2024-03-02T04:13:34;7.10;98.80
31819;DHT22;18384;48.860;9.188;2024-03-02T04:16:00;7.00;98.90
31819;DHT22;18384;48.860;9.188;2024-03-02T04:18:26;7.00;98.90
31819;DHT22;18384;48.860;9.188;2024-03-02T04:20:52;7.10;99.00
31819;DHT22;18384;48.860;9.188;2024-03-02T04:23:18;7.00;99.00
31819;DHT22;18384;48.860;9.188;2024-03-02T04:25:44;7.10;99.00
31819;DHT22;18384;48.860;9.188;2024-03-02T04:28:10;7.00;98.90
31819;DHT22;18384;48.860;9.188;2024-03-02T04:30:38;7.00;99.00
31819;DHT22;18384;48.860;9.188;2024-03-02T04:33:04;7.00;99.00
31819;DHT22;18384;48.860;9.188;2024-03-02T04:35:33;7.00;99.10
31819;DHT22;18384;48.860;9.188;2024-03-02T04:37:59;7.00;99.00
31819;DHT22;18384;48.860;9.188;2024-03-02T04:40:25;7.00;99.00
31819;DHT22;18384;48.860;9.188;2024-03-02T04:42:51;7.00;99.00
31819;DHT22;18384;48.860;9.188;2024-03-02T04:45:17;7.10;99.10
31819;DHT22;18384;48.860;9.188;2024-03-02T04:47:43;7.00;99.10
31819;DHT22;18384;48.860;9.188;2024-03-02T04:50:09;7.00;99.10
31819;DHT22;18384;48.860;9.188;2024-03-02T04:52:36;7.00;99.10
31819;DHT22;18384;48.860;9.188;2024-03-02T04:55:02;7.00;99.00
31819;DHT22;18384;48.860;9.188;2024-03-02T04:57:46;7.00;99.00
31819;DHT22;18384;48.860;9.188;2024-03-02T05:00:13;7.10;99.10
31819;DHT22;18384;48.860;9.188;2024-03-02T05:02:39;7.10;99.20
31819;DHT22;18384;48.860;9.188;2024-03-02T05:05:05;7.00;99.10
31819;DHT22;18384;48.860;9.188;2024-03-02T05:07:31;7.00;99.10
31819;DHT22;18384;48.860;9.188;2024-03-02T05:09:57;5.20;98.60
31819;DHT22;18384;48.860;9.188;2024-03-02T05:12:24;7.00;99.10
31819;DHT22;18384;48.860;9.188;2024-03-02T05:21:39;7.00;99.00
31819;DHT22;18384;48.860;9.188;2024-03-02T05:24:05;6.90;98.90
31819;DHT22;18384;48.860;9.188;2024-03-02T05:26:31;6.90;98.90
31819;DHT22;18384;48.860;9.188;2024-03-02T05:28:57;6.80;98.80
31819;DHT22;18384;48.860;9.188;2024-03-02T05:31:24;6.80;98.90
31819;DHT22;18384;48.860;9.188;2024-03-02T05:33:50;6.80;98.90
31819;DHT22;18384;48.860;9.188;2024-03-02T05:36:18;6.80;98.80
31819;DHT22;18384;48.860;9.188;2024-03-02T05:38:44;6.80;98.80
31819;DHT22;18384;48.860;9.188;2024-03-02T05:41:10;6.80;98.80
31819;DHT22;18384;48.860;9.188;2024-03-02T05:43:37;6.70;98.70
31819;DHT22;18384;48.860;9.188;2024-03-02T05:46:03;6.70;98.70
31819;DHT22;18384;48.860;9.188;2024-03-02T05:48:29;6.70;98.60
31819;DHT22;18384;48.860;9.188;2024-03-02T05:50:55;6.70;98.60
31819;DHT22;18384;48.860;9.188;2024-03-02T05:53:22;6.70;98.50
31819;DHT22;18384;48.860;9.188;2024-03-02T05:55:48;6.70;98.70
31819;DHT22;18384;48.860;9.188;2024-03-02T05:58:19;6.70;98.50
31819;DHT22;18384;48.860;9.188;2024-03-02T06:01:08;6.70;98.60
31819;DHT22;18384;48.860;9.188;2024-03-02T06:03:34;6.70;98.60
31819;DHT22;18384;48.860;9.188;2024-03-02T06:06:00;6.60;99.00
31819;DHT22;18384;48.860;9.188;2024-03-02T06:08:26;6.70;98.70
31819;DHT22;18384;48.860;9.188;2024-03-02T06:10:53;6.70;98.70
31819;DHT22;18384;48.860;9.188;2024-03-02T06:13:19;6.70;98.80
31819;DHT22;18384;48.860;9.188;2024-03-02T06:15:45;6.70;98.80
31819;DHT22;18384;48.860;9.188;2024-03-02T06:18:11;6.70;98.70
31819;DHT22;18384;48.860;9.188;2024-03-02T06:20:37;6.70;99.00
31819;DHT22;18384;48.860;9.188;2024-03-02T06:23:04;6.70;98.90
31819;DHT22;18384;48.860;9.188;2024-03-02T06:25:30;6.70;98.90
31819;DHT22;18384;48.860;9.188;2024-03-02T06:27:56;6.70;99.00
31819;DHT22;18384;48.860;9.188;2024-03-02T06:30:22;6.80;99.10
31819;DHT22;18384;48.860;9.188;2024-03-02T06:32:49;6.80;99.20
31819;DHT22;18384;48.860;9.188;2024-03-02T06:35:15;6.80;99.20
31819;DHT22;18384;48.860;9.188;2024-03-02T06:37:41;6.90;99.20
31819;DHT22;18384;48.860;9.188;2024-03-02T06:40:08;6.90;99.30
31819;DHT22;18384;48.860;9.188;2024-03-02T06:42:35;7.00;99.40
31819;DHT22;18384;48.860;9.188;2024-03-02T06:45:02;7.00;99.30
31819;DHT22;18384;48.860;9.188;2024-03-02T06:47:28;7.10;99.30
31819;DHT22;18384;48.860;9.188;2024-03-02T06:49:55;7.10;99.30
31819;DHT22;18384;48.860;9.188;2024-03-02T06:52:22;7.10;99.20
31819;DHT22;18384;48.860;9.188;2024-03-02T06:54:49;7.20;99.20
31819;DHT22;18384;48.860;9.188;2024-03-02T06:57:15;7.30;99.20
31819;DHT22;18384;48.860;9.188;2024-03-02T06:59:42;7.40;99.20
31819;DHT22;18384;48.860;9.188;2024-03-02T07:02:08;7.40;99.10
31819;DHT22;18384;48.860;9.188;2024-03-02T07:04:34;7.50;99.20
31819;DHT22;18384;48.860;9.188;2024-03-02T07:07:00;7.50;99.00
31819;DHT22;18384;48.860;9.188;2024-03-02T07:09:27;7.50;99.10
31819;DHT22;18384;48.860;9.188;2024-03-02T07:11:53;7.60;99.00
31819;DHT22;18384;48.860;9.188;2024-03-02T07:14:19;7.70;99.00
31819;DHT22;18384;48.860;9.188;2024-03-02T07:16:45;7.70;98.80
31819;DHT22;18384;48.860;9.188;2024-03-02T07:19:11;7.70;98.70
31819;DHT22;18384;48.860;9.188;2024-03-02T07:21:37;7.80;98.90
31819;DHT22;18384;48.860;9.188;2024-03-02T07:24:04;7.80;98.90
31819;DHT22;18384;48.860;9.188;2024-03-02T07:26:31;7.90;98.80
31819;DHT22;18384;48.860;9.188;2024-03-02T07:28:57;8.00;98.70
31819;DHT22;18384;48.860;9.188;2024-03-02T07:31:23;8.00;98.80
31819;DHT22;18384;48.860;9.188;2024-03-02T07:33:49;8.10;98.70
31819;DHT22;18384;48.860;9.188;2024-03-02T07:36:15;8.10;98.80
31819;DHT22;18384;48.860;9.188;2024-03-02T07:38:43;8.20;98.70
31819;DHT22;18384;48.860;9.188;2024-03-02T07:41:10;8.30;98.50
31819;DHT22;18384;48.860;9.188;2024-03-02T07:43:36;8.30;98.40
31819;DHT22;18384;48.860;9.188;2024-03-02T07:46:03;8.40;98.40
31819;DHT22;18384;48.860;9.188;2024-03-02T07:48:29;8.40;98.20
31819;DHT22;18384;48.860;9.188;2024-03-02T07:50:56;8.50;98.10
31819;DHT22;18384;48.860;9.188;2024-03-02T07:53:22;8.40;98.20
31819;DHT22;18384;48.860;9.188;2024-03-02T07:55:48;8.50;98.00
31819;DHT22;18384;48.860;9.188;2024-03-02T07:58:14;8.50;98.00
31819;DHT22;18384;48.860;9.188;2024-03-02T08:00:40;8.50;97.90
31819;DHT22;18384;48.860;9.188;2024-03-02T08:03:07;8.50;97.90
31819;DHT22;18384;48.860;9.188;2024-03-02T08:05:39;8.60;97.80
31819;DHT22;18384;48.860;9.188;2024-03-02T08:08:05;8.60;97.80
31819;DHT22;18384;48.860;9.188;2024-03-02T08:10:31;8.60;97.70
31819;DHT22;18384;48.860;9.188;2024-03-02T08:12:58;8.60;97.70
31819;DHT22;18384;48.860;9.188;2024-03-02T08:15:25;8.70;97.60
31819;DHT22;18384;48.860;9.188;2024-03-02T08:17:51;8.70;97.60
31819;DHT22;18384;48.860;9.188;2024-03-02T08:20:17;8.70;97.70
31819;DHT22;18384;48.860;9.188;2024-03-02T08:22:45;8.70;97.40
31819;DHT22;18384;48.860;9.188;2024-03-02T08:25:12;8.70;97.40
31819;DHT22;18384;48.860;9.188;2024-03-02T08:27:39;8.70;97.30
31819;DHT22;18384;48.860;9.188;2024-03-02T08:30:06;8.70;97.40
31819;DHT22;18384;48.860;9.188;2024-03-02T08:32:33;8.70;97.30
31819;DHT22;18384;48.860;9.188;2024-03-02T08:35:00;8.70;97.30
31819;DHT22;18384;48.860;9.188;2024-03-02T08:37:26;8.80;97.30
31819;DHT22;18384;48.860;9.188;2024-03-02T08:39:52;8.80;97.40
31819;DHT22;18384;48.860;9.188;2024-03-02T08:42:18;8.80;97.30
31819;DHT22;18384;48.860;9.188;2024-03-02T08:44:44;8.90;97.20
31819;DHT22;18384;48.860;9.188;2024-03-02T08:47:10;9.00;97.20
31819;DHT22;18384;48.860;9.188;2024-03-02T08:49:36;9.00;97.20
31819;DHT22;18384;48.860;9.188;2024-03-02T08:52:02;9.00;97.10
31819;DHT22;18384;48.860;9.188;2024-03-02T08:54:29;9.10;97.10
31819;DHT22;18384;48.860;9.188;2024-03-02T08:56:55;9.20;97.10
31819;DHT22;18384;48.860;9.188;2024-03-02T08:59:22;9.20;97.10
31819;DHT22;18384;48.860;9.188;2024-03-02T09:01:48;9.30;96.70
31819;DHT22;18384;48.860;9.188;2024-03-02T09:04:14;9.30;96.60
31819;DHT22;18384;48.860;9.188;2024-03-02T09:06:40;9.40;96.50
31819;DHT22;18384;48.860;9.188;2024-03-02T09:09:06;9.40;96.50
31819;DHT22;18384;48.860;9.188;2024-03-02T09:11:33;9.50;96.30
31819;DHT22;18384;48.860;9.188;2024-03-02T09:14:00;9.50;96.20
31819;DHT22;18384;48.860;9.188;2024-03-02T09:16:26;9.60;95.90
31819;DHT22;18384;48.860;9.188;2024-03-02T09:18:56;9.60;95.50
31819;DHT22;18384;48.860;9.188;2024-03-02T09:21:23;9.70;95.40
31819;DHT22;18384;48.860;9.188;2024-03-02T09:23:51;9.70;95.50
31819;DHT22;18384;48.860;9.188;2024-03-02T09:26:17;9.80;95.70
31819;DHT22;18384;48.860;9.188;2024-03-02T09:28:45;9.80;95.40
31819;DHT22;18384;48.860;9.188;2024-03-02T09:31:11;9.90;95.40
31819;DHT22;18384;48.860;9.188;2024-03-02T09:33:37;9.90;95.40
31819;DHT22;18384;48.860;9.188;2024-03-02T09:36:05;10.00;95.20
31819;DHT22;18384;48.860;9.188;2024-03-02T09:38:34;10.10;95.20
31819;DHT22;18384;48.860;9.188;2024-03-02T09:41:01;10.10;95.00
31819;DHT22;18384;48.860;9.188;2024-03-02T09:43:27;10.10;94.90
31819;DHT22;18384;48.860;9.188;2024-03-02T09:45:53;10.10;94.80
31819;DHT22;18384;48.860;9.188;2024-03-02T09:48:19;10.20;94.90
31819;DHT22;18384;48.860;9.188;2024-03-02T09:50:46;10.20;95.20
31819;DHT22;18384;48.860;9.188;2024-03-02T09:53:14;10.20;94.80
31819;DHT22;18384;48.860;9.188;2024-03-02T09:55:40;10.30;94.70
31819;DHT22;18384;48.860;9.188;2024-03-02T09:58:09;10.30;94.60
31819;DHT22;18384;48.860;9.188;2024-03-02T10:00:35;10.40;94.50
31819;DHT22;18384;48.860;9.188;2024-03-02T10:03:01;10.50;94.30
31819;DHT22;18384;48.860;9.188;2024-03-02T10:05:28;10.50;94.10
31819;DHT22;18384;48.860;9.188;2024-03-02T10:08:01;10.60;94.40
31819;DHT22;18384;48.860;9.188;2024-03-02T10:10:36;10.60;94.10
31819;DHT22;18384;48.860;9.188;2024-03-02T10:13:06;10.70;94.00
31819;DHT22;18384;48.860;9.188;2024-03-02T10:15:34;10.80;94.00
31819;DHT22;18384;48.860;9.188;2024-03-02T10:18:01;10.80;93.80
31819;DHT22;18384;48.860;9.188;2024-03-02T10:20:28;10.90;93.60
31819;DHT22;18384;48.860;9.188;2024-03-02T10:22:55;10.90;93.50
31819;DHT22;18384;48.860;9.188;2024-03-02T10:25:34;10.90;93.50
31819;DHT22;18384;48.860;9.188;2024-03-02T10:28:00;11.00;93.30
31819;DHT22;18384;48.860;9.188;2024-03-02T10:30:27;11.00;93.00
31819;DHT22;18384;48.860;9.188;2024-03-02T10:32:54;11.10;93.20
31819;DHT22;18384;48.860;9.188;2024-03-02T10:35:24;11.10;92.90
31819;DHT22;18384;48.860;9.188;2024-03-02T10:37:52;11.20;93.10
31819;DHT22;18384;48.860;9.188;2024-03-02T10:40:21;11.20;93.00
31819;DHT22;18384;48.860;9.188;2024-03-02T10:42:48;11.20;92.80
31819;DHT22;18384;48.860;9.188;2024-03-02T10:45:16;11.30;92.70
31819;DHT22;18384;48.860;9.188;2024-03-02T10:47:47;11.30;92.80
31819;DHT22;18384;48.860;9.188;2024-03-02T10:50:13;11.40;92.80
31819;DHT22;18384;48.860;9.188;2024-03-02T10:52:39;11.50;92.90
31819;DHT22;18384;48.860;9.188;2024-03-02T10:55:06;11.50;92.70
31819;DHT22;18384;48.860;9.188;2024-03-02T10:57:59;11.50;92.80
31819;DHT22;18384;48.860;9.188;2024-03-02T11:00:33;11.60;92.30
31819;DHT22;18384;48.860;9.188;2024-03-02T11:03:07;11.70;92.40
31819;DHT22;18384;48.860;9.188;2024-03-02T11:05:39;11.70;92.40
31819;DHT22;18384;48.860;9.188;2024-03-02T11:08:08;11.80;92.10
31819;DHT22;18384;48.860;9.188;2024-03-02T11:10:40;11.80;92.60
31819;DHT22;18384;48.860;9.188;2024-03-02T11:13:12;11.20;92.20
31819;DHT22;18384;48.860;9.188;2024-03-02T11:15:40;12.00;92.10
31819;DHT22;18384;48.860;9.188;2024-03-02T11:18:10;12.00;91.60
31819;DHT22;18384;48.860;9.188;2024-03-02T11:20:40;12.10;91.50
31819;DHT22;18384;48.860;9.188;2024-03-02T11:23:07;12.20;91.80
31819;DHT22;18384;48.860;9.188;2024-03-02T11:25:34;12.20;91.60
31819;DHT22;18384;48.860;9.188;2024-03-02T11:28:03;12.30;91.30
31819;DHT22;18384;48.860;9.188;2024-03-02T11:31:12;12.30;91.30
31819;DHT22;18384;48.860;9.188;2024-03-02T11:33:38;12.40;91.10
31819;DHT22;18384;48.860;9.188;2024-03-02T11:36:06;14.90;91.90
31819;DHT22;18384;48.860;9.188;2024-03-02T11:38:34;12.50;91.20
31819;DHT22;18384;48.860;9.188;2024-03-02T11:41:03;12.60;91.00
31819;DHT22;18384;48.860;9.188;2024-03-02T11:43:32;12.70;90.80
31819;DHT22;18384;48.860;9.188;2024-03-02T11:46:00;12.70;90.90
31819;DHT22;18384;48.860;9.188;2024-03-02T11:48:27;12.80;90.60
31819;DHT22;18384;48.860;9.188;2024-03-02T11:50:53;12.80;90.60
31819;DHT22;18384;48.860;9.188;2024-03-02T11:53:20;12.90;90.30
31819;DHT22;18384;48.860;9.188;2024-03-02T11:55:49;13.00;90.00
31819;DHT22;18384;48.860;9.188;2024-03-02T11:58:16;13.00;90.10
31819;DHT22;18384;48.860;9.188;2024-03-02T12:00:46;13.00;90.40
31819;DHT22;18384;48.860;9.188;2024-03-02T12:03:13;13.10;90.00
31819;DHT22;18384;48.860;9.188;2024-03-02T12:05:40;13.10;90.10
31819;DHT22;18384;48.860;9.188;2024-03-02T12:08:08;13.10;90.60
31819;DHT22;18384;48.860;9.188;2024-03-02T12:10:35;13.10;90.40
31819;DHT22;18384;48.860;9.188;2024-03-02T12:13:06;13.10;90.40
31819;DHT22;18384;48.860;9.188;2024-03-02T12:15:37;13.20;90.50
31819;DHT22;18384;48.860;9.188;2024-03-02T12:18:05;13.20;89.30
31819;DHT22;18384;48.860;9.188;2024-03-02T12:20:33;13.20;90.10
31819;DHT22;18384;48.860;9.188;2024-03-02T12:23:00;13.20;89.50
31819;DHT22;18384;48.860;9.188;2024-03-02T12:25:28;13.30;88.70
31819;DHT22;18384;48.860;9.188;2024-03-02T12:27:57;13.20;89.10
31819;DHT22;18384;48.860;9.188;2024-03-02T12:30:24;13.30;90.00
31819;DHT22;18384;48.860;9.188;2024-03-02T12:32:53;13.40;89.30
31819;DHT22;18384;48.860;9.188;2024-03-02T12:35:20;13.50;88.20
31819;DHT22;18384;48.860;9.188;2024-03-02T12:37:50;13.60;88.10
31819;DHT22;18384;48.860;9.188;2024-03-02T12:40:18;13.60;88.10
31819;DHT22;18384;48.860;9.188;2024-03-02T12:42:46;13.70;88.10
31819;DHT22;18384;48.860;9.188;2024-03-02T12:45:13;13.70;86.60
31819;DHT22;18384;48.860;9.188;2024-03-02T12:47:40;13.80;86.00
31819;DHT22;18384;48.860;9.188;2024-03-02T12:50:08;13.80;85.10
31819;DHT22;18384;48.860;9.188;2024-03-02T12:52:34;13.90;84.80
31819;DHT22;18384;48.860;9.188;2024-03-02T12:55:03;14.00;86.30
31819;DHT22;18384;48.860;9.188;2024-03-02T12:57:34;14.00;84.50
31819;DHT22;18384;48.860;9.188;2024-03-02T13:00:04;14.00;83.50
31819;DHT22;18384;48.860;9.188;2024-03-02T13:02:42;14.00;83.30
31819;DHT22;18384;48.860;9.188;2024-03-02T13:05:11;14.10;83.40
31819;DHT22;18384;48.860;9.188;2024-03-02T13:07:38;14.00;84.00
31819;DHT22;18384;48.860;9.188;2024-03-02T13:10:05;14.10;85.30
31819;DHT22;18384;48.860;9.188;2024-03-02T13:12:35;14.00;86.40
31819;DHT22;18384;48.860;9.188;2024-03-02T13:15:02;14.00;85.00
31819;DHT22;18384;48.860;9.188;2024-03-02T13:17:30;14.10;83.90
31819;DHT22;18384;48.860;9.188;2024-03-02T13:20:01;14.10;83.50
31819;DHT22;18384;48.860;9.188;2024-03-02T13:22:30;14.10;84.00
31819;DHT22;18384;48.860;9.188;2024-03-02T13:24:56;14.00;83.50
31819;DHT22;18384;48.860;9.188;2024-03-02T13:27:23;14.00;82.00
31819;DHT22;18384;48.860;9.188;2024-03-02T13:29:49;14.00;81.40
31819;DHT22;18384;48.860;9.188;2024-03-02T13:32:16;14.00;83.30
31819;DHT22;18384;48.860;9.188;2024-03-02T13:34:43;14.10;82.90
31819;DHT22;18384;48.860;9.188;2024-03-02T13:37:09;14.10;82.20
31819;DHT22;18384;48.860;9.188;2024-03-02T13:39:35;14.10;83.10
31819;DHT22;18384;48.860;9.188;2024-03-02T13:42:09;14.10;82.80
31819;DHT22;18384;48.860;9.188;2024-03-02T13:44:36;14.10;82.90
31819;DHT22;18384;48.860;9.188;2024-03-02T13:47:03;14.10;82.20
31819;DHT22;18384;48.860;9.188;2024-03-02T13:49:30;14.10;82.90
31819;DHT22;18384;48.860;9.188;2024-03-02T13:52:04;14.10;82.90
31819;DHT22;18384;48.860;9.188;2024-03-02T13:54:43;14.10;82.60
31819;DHT22;18384;48.860;9.188;2024-03-02T13:57:11;14.10;82.90
31819;DHT22;18384;48.860;9.188;2024-03-02T13:59:38;14.10;81.70
31819;DHT22;18384;48.860;9.188;2024-03-02T14:02:05;14.10;81.20
31819;DHT22;18384;48.860;9.188;2024-03-02T14:04:35;14.20;81.60
31819;DHT22;18384;48.860;9.188;2024-03-02T14:07:02;14.10;82.00
31819;DHT22;18384;48.860;9.188;2024-03-02T14:09:29;14.20;82.80
31819;DHT22;18384;48.860;9.188;2024-03-02T14:11:55;14.20;82.10
31819;DHT22;18384;48.860;9.188;2024-03-02T14:14:22;14.20;82.00
31819;DHT22;18384;48.860;9.188;2024-03-02T14:16:48;14.20;81.80
31819;DHT22;18384;48.860;9.188;2024-03-02T14:19:14;14.20;82.00
31819;DHT22;18384;48.860;9.188;2024-03-02T14:21:41;14.20;82.30
31819;DHT22;18384;48.860;9.188;2024-03-02T14:24:07;14.20;82.40
31819;DHT22;18384;48.860;9.188;2024-03-02T14:26:33;14.20;81.70
31819;DHT22;18384;48.860;9.188;2024-03-02T14:29:00;14.30;81.50
31819;DHT22;18384;48.860;9.188;2024-03-02T14:31:29;14.30;82.10
31819;DHT22;18384;48.860;9.188;2024-03-02T14:33:57;14.30;81.30
31819;DHT22;18384;48.860;9.188;2024-03-02T14:36:23;14.20;81.10
31819;DHT22;18384;48.860;9.188;2024-03-02T14:38:49;14.20;81.50
31819;DHT22;18384;48.860;9.188;2024-03-02T14:41:15;14.20;81.10
31819;DHT22;18384;48.860;9.188;2024-03-02T14:43:41;14.20;81.90
31819;DHT22;18384;48.860;9.188;2024-03-02T14:46:07;14.20;81.80
31819;DHT22;18384;48.860;9.188;2024-03-02T14:48:34;14.20;81.90
31819;DHT22;18384;48.860;9.188;2024-03-02T14:51:02;14.20;82.50
31819;DHT22;18384;48.860;9.188;2024-03-02T14:53:28;14.20;82.10
31819;DHT22;18384;48.860;9.188;2024-03-02T14:55:54;14.30;82.00
31819;DHT22;18384;48.860;9.188;2024-03-02T14:58:21;14.20;80.90
31819;DHT22;18384;48.860;9.188;2024-03-02T15:00:47;14.20;81.70
31819;DHT22;18384;48.860;9.188;2024-03-02T15:03:13;14.20;80.90
31819;DHT22;18384;48.860;9.188;2024-03-02T15:05:39;14.20;81.00
31819;DHT22;18384;48.860;9.188;2024-03-02T15:08:06;14.20;80.90
31819;DHT22;18384;48.860;9.188;2024-03-02T15:10:32;14.20;79.60
31819;DHT22;18384;48.860;9.188;2024-03-02T15:12:59;14.20;79.70
31819;DHT22;18384;48.860;9.188;2024-03-02T15:15:25;14.20;80.30
31819;DHT22;18384;48.860;9.188;2024-03-02T15:17:52;14.10;80.00
31819;DHT22;18384;48.860;9.188;2024-03-02T15:20:18;14.10;80.30
31819;DHT22;18384;48.860;9.188;2024-03-02T15:22:46;14.10;79.30
31819;DHT22;18384;48.860;9.188;2024-03-02T15:25:12;14.10;79.70
31819;DHT22;18384;48.860;9.188;2024-03-02T15:27:42;14.10;79.50
31819;DHT22;18384;48.860;9.188;2024-03-02T15:30:08;14.10;79.70
31819;DHT22;18384;48.860;9.188;2024-03-02T15:32:34;14.00;80.10
31819;DHT22;18384;48.860;9.188;2024-03-02T15:35:02;14.00;79.20
31819;DHT22;18384;48.860;9.188;2024-03-02T15:37:29;13.90;79.10
31819;DHT22;18384;48.860;9.188;2024-03-02T15:39:55;13.90;79.30
31819;DHT22;18384;48.860;9.188;2024-03-02T15:42:21;13.80;79.80
31819;DHT22;18384;48.860;9.188;2024-03-02T15:44:49;13.80;80.70
31819;DHT22;18384;48.860;9.188;2024-03-02T15:47:15;13.70;81.20
31819;DHT22;18384;48.860;9.188;2024-03-02T15:49:42;13.70;81.50